sensor_id;sensor_type;location;lat;lon;timestamp;pressure;altitude;pressure_sealevel;temperature;humidity
80424;BME280;69765;47.668;19.326;2023-06-10T00:01:26;98713.88;;;15.36;92.69
80424;BME280;69765;47.668;19.326;2023-06-10T00:04:29;98720.47;;;15.29;92.77
80424;BME280;69765;47.668;19.326;2023-06-10T00:07:32;98714.19;;;15.22;93.63
80424;BME280;69765;47.668;19.326;2023-06-10T00:10:35;98709.06;;;15.24;93.64
80424;BME280;69765;47.668;19.326;2023-06-10T00:13:37;98716.13;;;15.28;94.28
80424;BME280;69765;47.668;19.326;2023-06-10T00:16:40;98713.31;;;15.22;94.47
80424;BME280;69765;47.668;19.326;2023-06-10T00:19:43;98710.09;;;15.27;94.63
80424;BME280;69765;47.668;19.326;2023-06-10T00:22:45;98713.88;;;15.15;94.88
80424;BME280;69765;47.668;19.326;2023-06-10T00:25:48;98711.44;;;15.18;95.37
80424;BME280;69765;47.668;19.326;2023-06-10T00:28:51;98703.34;;;15.10;96.24
80424;BME280;69765;47.668;19.326;2023-06-10T00:31:55;98710.88;;;15.04;97.34
80424;BME280;69765;47.668;19.326;2023-06-10T00:34:59;98708.72;;;14.94;97.93
80424;BME280;69765;47.668;19.326;2023-06-10T00:38:02;98715.91;;;15.01;97.90
80424;BME280;69765;47.668;19.326;2023-06-10T00:41:04;98714.03;;;14.97;96.93
80424;BME280;69765;47.668;19.326;2023-06-10T00:44:06;98719.03;;;14.94;96.94
80424;BME280;69765;47.668;19.326;2023-06-10T00:47:10;98722.44;;;14.93;97.10
80424;BME280;69765;47.668;19.326;2023-06-10T00:50:13;98723.66;;;15.01;96.97
80424;BME280;69765;47.668;19.326;2023-06-10T00:53:15;98721.56;;;15.13;97.59
80424;BME280;69765;47.668;19.326;2023-06-10T00:56:18;98727.41;;;15.30;97.56
80424;BME280;69765;47.668;19.326;2023-06-10T00:59:21;98725.06;;;15.36;97.91
80424;BME280;69765;47.668;19.326;2023-06-10T01:02:23;98725.44;;;15.45;97.58
80424;BME280;69765;47.668;19.326;2023-06-10T01:05:26;98729.03;;;15.49;97.12
80424;BME280;69765;47.668;19.326;2023-06-10T01:08:41;98720.09;;;15.41;97.76
80424;BME280;69765;47.668;19.326;2023-06-10T01:12:02;98719.22;;;15.40;97.87
80424;BME280;69765;47.668;19.326;2023-06-10T01:15:11;98718.91;;;15.32;97.16
80424;BME280;69765;47.668;19.326;2023-06-10T01:18:13;98723.44;;;15.17;96.31
80424;BME280;69765;47.668;19.326;2023-06-10T01:21:23;98723.06;;;15.08;96.21
80424;BME280;69765;47.668;19.326;2023-06-10T01:24:27;98721.31;;;15.07;96.70
80424;BME280;69765;47.668;19.326;2023-06-10T01:27:32;98718.66;;;15.05;96.46
80424;BME280;69765;47.668;19.326;2023-06-10T01:34:13;98716.59;;;14.97;95.72
80424;BME280;69765;47.668;19.326;2023-06-10T01:37:19;98717.78;;;15.05;95.98
80424;BME280;69765;47.668;19.326;2023-06-10T01:40:23;98717.03;;;15.07;96.36
80424;BME280;69765;47.668;19.326;2023-06-10T01:43:27;98715.72;;;14.96;97.40
80424;BME280;69765;47.668;19.326;2023-06-10T01:46:30;98715.34;;;14.87;97.50
80424;BME280;69765;47.668;19.326;2023-06-10T01:49:32;98718.31;;;14.77;98.20
80424;BME280;69765;47.668;19.326;2023-06-10T01:52:35;98723.38;;;14.74;98.33
80424;BME280;69765;47.668;19.326;2023-06-10T01:55:37;98716.53;;;14.74;98.04
80424;BME280;69765;47.668;19.326;2023-06-10T01:58:40;98722.75;;;14.79;97.78
80424;BME280;69765;47.668;19.326;2023-06-10T02:01:42;98717.25;;;14.72;98.10
80424;BME280;69765;47.668;19.326;2023-06-10T02:04:45;98722.41;;;14.72;97.63
80424;BME280;69765;47.668;19.326;2023-06-10T02:07:47;98720.47;;;14.66;96.85
80424;BME280;69765;47.668;19.326;2023-06-10T02:10:49;98721.81;;;14.58;96.38
80424;BME280;69765;47.668;19.326;2023-06-10T02:13:52;98725.78;;;14.50;96.59
80424;BME280;69765;47.668;19.326;2023-06-10T02:16:54;98717.28;;;14.33;97.46
80424;BME280;69765;47.668;19.326;2023-06-10T02:19:58;98726.66;;;14.31;98.55
80424;BME280;69765;47.668;19.326;2023-06-10T02:23:01;98717.44;;;14.36;99.14
80424;BME280;69765;47.668;19.326;2023-06-10T02:26:04;98720.91;;;14.56;98.86
80424;BME280;69765;47.668;19.326;2023-06-10T02:29:06;98720.00;;;14.55;98.84
80424;BME280;69765;47.668;19.326;2023-06-10T02:32:09;98717.88;;;14.66;98.61
80424;BME280;69765;47.668;19.326;2023-06-10T02:35:12;98716.66;;;14.77;98.48
80424;BME280;69765;47.668;19.326;2023-06-10T02:38:15;98713.13;;;14.75;98.64
80424;BME280;69765;47.668;19.326;2023-06-10T02:41:18;98710.00;;;14.82;98.59
80424;BME280;69765;47.668;19.326;2023-06-10T02:44:21;98705.72;;;14.83;97.83
80424;BME280;69765;47.668;19.326;2023-06-10T02:47:24;98712.28;;;14.76;97.48
80424;BME280;69765;47.668;19.326;2023-06-10T02:50:27;98714.56;;;14.69;97.78
80424;BME280;69765;47.668;19.326;2023-06-10T02:53:37;98711.13;;;14.68;98.17
80424;BME280;69765;47.668;19.326;2023-06-10T02:56:43;98714.38;;;14.64;98.06
80424;BME280;69765;47.668;19.326;2023-06-10T02:59:52;98723.19;;;14.69;98.26
80424;BME280;69765;47.668;19.326;2023-06-10T03:02:56;98717.34;;;14.73;98.46
80424;BME280;69765;47.668;19.326;2023-06-10T03:06:05;98725.97;;;14.74;98.33
80424;BME280;69765;47.668;19.326;2023-06-10T03:09:09;98727.84;;;14.78;98.22
80424;BME280;69765;47.668;19.326;2023-06-10T03:12:14;98731.22;;;14.77;98.32
80424;BME280;69765;47.668;19.326;2023-06-10T03:15:20;98727.97;;;14.81;98.29
80424;BME280;69765;47.668;19.326;2023-06-10T03:18:27;98728.94;;;14.83;97.85
80424;BME280;69765;47.668;19.326;2023-06-10T03:21:30;98730.81;;;14.87;97.94
80424;BME280;69765;47.668;19.326;2023-06-10T03:24:33;98738.56;;;14.87;97.70
80424;BME280;69765;47.668;19.326;2023-06-10T03:27:36;98738.41;;;14.84;98.00
80424;BME280;69765;47.668;19.326;2023-06-10T03:30:42;98732.44;;;14.85;98.52
80424;BME280;69765;47.668;19.326;2023-06-10T03:33:45;98735.53;;;14.97;98.08
80424;BME280;69765;47.668;19.326;2023-06-10T03:36:47;98742.69;;;15.04;97.81
80424;BME280;69765;47.668;19.326;2023-06-10T03:39:50;98741.97;;;15.07;98.04
80424;BME280;69765;47.668;19.326;2023-06-10T03:42:53;98741.47;;;15.16;98.13
80424;BME280;69765;47.668;19.326;2023-06-10T03:45:56;98744.09;;;15.17;97.85
80424;BME280;69765;47.668;19.326;2023-06-10T03:48:59;98744.09;;;15.17;97.28
80424;BME280;69765;47.668;19.326;2023-06-10T03:52:03;98744.22;;;15.20;97.22
80424;BME280;69765;47.668;19.326;2023-06-10T03:55:06;98741.06;;;15.27;97.60
80424;BME280;69765;47.668;19.326;2023-06-10T03:58:10;98751.56;;;15.32;97.26
80424;BME280;69765;47.668;19.326;2023-06-10T04:01:15;98749.34;;;15.41;97.31
80424;BME280;69765;47.668;19.326;2023-06-10T04:04:20;98745.38;;;15.49;96.89
80424;BME280;69765;47.668;19.326;2023-06-10T04:07:22;98742.34;;;15.59;96.68
80424;BME280;69765;47.668;19.326;2023-06-10T04:10:25;98744.63;;;15.73;96.10
80424;BME280;69765;47.668;19.326;2023-06-10T04:13:29;98740.81;;;15.86;95.31
80424;BME280;69765;47.668;19.326;2023-06-10T04:16:34;98749.72;;;15.94;94.96
80424;BME280;69765;47.668;19.326;2023-06-10T04:19:37;98756.75;;;15.98;94.09
80424;BME280;69765;47.668;19.326;2023-06-10T04:22:41;98754.47;;;16.05;94.51
80424;BME280;69765;47.668;19.326;2023-06-10T04:25:43;98748.88;;;16.17;95.14
80424;BME280;69765;47.668;19.326;2023-06-10T04:28:46;98760.25;;;16.22;94.09
80424;BME280;69765;47.668;19.326;2023-06-10T04:31:49;98749.28;;;16.28;93.46
80424;BME280;69765;47.668;19.326;2023-06-10T04:34:53;98748.00;;;16.41;94.23
80424;BME280;69765;47.668;19.326;2023-06-10T04:37:55;98742.25;;;16.48;93.53
80424;BME280;69765;47.668;19.326;2023-06-10T04:40:58;98745.31;;;16.61;93.12
80424;BME280;69765;47.668;19.326;2023-06-10T04:44:02;98740.47;;;16.71;92.00
80424;BME280;69765;47.668;19.326;2023-06-10T04:47:05;98738.88;;;16.74;92.16
80424;BME280;69765;47.668;19.326;2023-06-10T04:50:10;98739.88;;;16.78;92.61
80424;BME280;69765;47.668;19.326;2023-06-10T04:53:12;98731.59;;;16.88;92.17
80424;BME280;69765;47.668;19.326;2023-06-10T04:56:19;98734.44;;;16.96;92.49
80424;BME280;69765;47.668;19.326;2023-06-10T04:59:22;98735.38;;;16.98;92.28
80424;BME280;69765;47.668;19.326;2023-06-10T05:02:24;98731.13;;;17.00;91.18
80424;BME280;69765;47.668;19.326;2023-06-10T05:05:27;98733.16;;;17.08;91.67
80424;BME280;69765;47.668;19.326;2023-06-10T05:08:29;98735.81;;;17.11;89.99
80424;BME280;69765;47.668;19.326;2023-06-10T05:11:31;98733.50;;;17.19;91.56
80424;BME280;69765;47.668;19.326;2023-06-10T05:14:34;98729.31;;;17.23;89.75
80424;BME280;69765;47.668;19.326;2023-06-10T05:17:36;98735.59;;;17.31;90.91
80424;BME280;69765;47.668;19.326;2023-06-10T05:20:39;98735.13;;;17.43;90.60
80424;BME280;69765;47.668;19.326;2023-06-10T05:23:41;98733.88;;;17.58;90.05
80424;BME280;69765;47.668;19.326;2023-06-10T05:26:44;98738.03;;;17.53;88.86
80424;BME280;69765;47.668;19.326;2023-06-10T05:29:46;98744.09;;;17.54;89.82
80424;BME280;69765;47.668;19.326;2023-06-10T05:32:48;98744.31;;;17.60;89.34
80424;BME280;69765;47.668;19.326;2023-06-10T05:35:51;98742.22;;;17.50;89.17
80424;BME280;69765;47.668;19.326;2023-06-10T05:38:53;98739.75;;;17.53;89.67
80424;BME280;69765;47.668;19.326;2023-06-10T05:41:56;98737.88;;;17.74;89.51
80424;BME280;69765;47.668;19.326;2023-06-10T05:45:01;98741.66;;;17.85;89.73
80424;BME280;69765;47.668;19.326;2023-06-10T05:48:04;98739.31;;;17.93;88.80
80424;BME280;69765;47.668;19.326;2023-06-10T05:51:07;98741.06;;;17.94;88.95
80424;BME280;69765;47.668;19.326;2023-06-10T05:54:09;98741.19;;;17.99;88.49
80424;BME280;69765;47.668;19.326;2023-06-10T05:57:11;98745.53;;;18.00;89.31
80424;BME280;69765;47.668;19.326;2023-06-10T06:00:14;98744.63;;;17.98;89.35
80424;BME280;69765;47.668;19.326;2023-06-10T06:03:17;98742.25;;;18.05;88.79
80424;BME280;69765;47.668;19.326;2023-06-10T06:06:19;98745.09;;;18.14;89.34
80424;BME280;69765;47.668;19.326;2023-06-10T06:09:25;98743.47;;;18.48;88.34
80424;BME280;69765;47.668;19.326;2023-06-10T06:12:27;98740.88;;;18.78;86.58
80424;BME280;69765;47.668;19.326;2023-06-10T06:15:30;98739.50;;;18.93;86.96
80424;BME280;69765;47.668;19.326;2023-06-10T06:18:32;98744.31;;;19.12;85.51
80424;BME280;69765;47.668;19.326;2023-06-10T06:21:34;98742.69;;;19.15;84.69
80424;BME280;69765;47.668;19.326;2023-06-10T06:24:37;98742.28;;;19.00;85.28
80424;BME280;69765;47.668;19.326;2023-06-10T06:27:39;98738.91;;;19.03;85.25
80424;BME280;69765;47.668;19.326;2023-06-10T06:30:42;98746.94;;;19.13;83.76
80424;BME280;69765;47.668;19.326;2023-06-10T06:33:44;98751.84;;;19.36;83.51
80424;BME280;69765;47.668;19.326;2023-06-10T06:36:46;98756.16;;;19.70;84.16
80424;BME280;69765;47.668;19.326;2023-06-10T06:39:53;98750.09;;;19.71;82.69
80424;BME280;69765;47.668;19.326;2023-06-10T06:42:56;98756.69;;;19.95;83.01
80424;BME280;69765;47.668;19.326;2023-06-10T06:46:10;98758.84;;;20.53;79.69
80424;BME280;69765;47.668;19.326;2023-06-10T06:49:14;98746.06;;;21.65;75.03
80424;BME280;69765;47.668;19.326;2023-06-10T06:52:17;98746.69;;;21.51;74.56
80424;BME280;69765;47.668;19.326;2023-06-10T06:55:19;98752.81;;;21.53;75.71
80424;BME280;69765;47.668;19.326;2023-06-10T06:58:21;98754.88;;;21.75;75.26
80424;BME280;69765;47.668;19.326;2023-06-10T07:01:24;98753.84;;;21.64;73.21
80424;BME280;69765;47.668;19.326;2023-06-10T07:04:26;98755.28;;;21.45;71.92
80424;BME280;69765;47.668;19.326;2023-06-10T07:07:29;98754.19;;;21.31;76.39
80424;BME280;69765;47.668;19.326;2023-06-10T07:10:31;98760.47;;;21.43;75.47
80424;BME280;69765;47.668;19.326;2023-06-10T07:13:33;98756.84;;;21.32;nan
80424;BME280;69765;47.668;19.326;2023-06-10T07:16:36;98756.56;;;21.70;nan
80424;BME280;69765;47.668;19.326;2023-06-10T07:19:39;98765.66;;;21.98;72.44
80424;BME280;69765;47.668;19.326;2023-06-10T07:22:43;98760.56;;;22.09;71.93
80424;BME280;69765;47.668;19.326;2023-06-10T07:25:45;98765.75;;;22.06;72.34
80424;BME280;69765;47.668;19.326;2023-06-10T07:28:47;98762.72;;;21.78;76.14
80424;BME280;69765;47.668;19.326;2023-06-10T07:31:50;98771.41;;;21.76;73.19
80424;BME280;69765;47.668;19.326;2023-06-10T07:34:53;98763.78;;;21.88;73.93
80424;BME280;69765;47.668;19.326;2023-06-10T07:37:55;98766.09;;;23.05;68.80
80424;BME280;69765;47.668;19.326;2023-06-10T07:40:58;98766.47;;;22.62;69.98
80424;BME280;69765;47.668;19.326;2023-06-10T07:44:00;98759.88;;;22.92;70.14
80424;BME280;69765;47.668;19.326;2023-06-10T07:47:04;98758.03;;;22.86;65.62
80424;BME280;69765;47.668;19.326;2023-06-10T07:50:06;98761.63;;;24.03;63.85
80424;BME280;69765;47.668;19.326;2023-06-10T07:53:09;98764.38;;;24.19;64.74
80424;BME280;69765;47.668;19.326;2023-06-10T07:56:11;98769.78;;;24.53;64.84
80424;BME280;69765;47.668;19.326;2023-06-10T07:59:14;98768.06;;;24.69;62.60
80424;BME280;69765;47.668;19.326;2023-06-10T08:02:16;98769.53;;;24.09;69.42
80424;BME280;69765;47.668;19.326;2023-06-10T08:05:19;98766.97;;;24.15;66.09
80424;BME280;69765;47.668;19.326;2023-06-10T08:08:22;98774.31;;;25.09;64.10
80424;BME280;69765;47.668;19.326;2023-06-10T08:11:25;98772.47;;;24.79;61.25
80424;BME280;69765;47.668;19.326;2023-06-10T08:14:30;98773.84;;;24.04;66.69
80424;BME280;69765;47.668;19.326;2023-06-10T08:17:32;98768.16;;;23.41;67.82
80424;BME280;69765;47.668;19.326;2023-06-10T08:20:35;98770.66;;;23.26;69.34
80424;BME280;69765;47.668;19.326;2023-06-10T08:23:37;98759.25;;;23.16;68.15
80424;BME280;69765;47.668;19.326;2023-06-10T08:26:39;98754.09;;;23.27;69.64
80424;BME280;69765;47.668;19.326;2023-06-10T08:29:42;98767.25;;;23.37;67.71
80424;BME280;69765;47.668;19.326;2023-06-10T08:32:44;98756.94;;;23.56;66.47
80424;BME280;69765;47.668;19.326;2023-06-10T08:35:46;98762.66;;;24.31;61.16
80424;BME280;69765;47.668;19.326;2023-06-10T08:38:49;98749.00;;;25.37;60.11
80424;BME280;69765;47.668;19.326;2023-06-10T08:45:12;98752.47;;;25.74;58.39
80424;BME280;69765;47.668;19.326;2023-06-10T08:48:19;98748.94;;;25.05;59.13
80424;BME280;69765;47.668;19.326;2023-06-10T08:51:22;98754.09;;;24.68;61.33
80424;BME280;69765;47.668;19.326;2023-06-10T08:54:33;98755.00;;;24.78;61.03
80424;BME280;69765;47.668;19.326;2023-06-10T08:57:40;98745.38;;;24.71;64.54
80424;BME280;69765;47.668;19.326;2023-06-10T09:00:43;98750.59;;;24.57;61.29
80424;BME280;69765;47.668;19.326;2023-06-10T09:03:46;98747.81;;;24.28;63.33
80424;BME280;69765;47.668;19.326;2023-06-10T09:06:49;98749.66;;;24.51;62.16
80424;BME280;69765;47.668;19.326;2023-06-10T09:09:53;98750.34;;;24.10;63.10
80424;BME280;69765;47.668;19.326;2023-06-10T09:12:56;98747.91;;;24.39;62.15
80424;BME280;69765;47.668;19.326;2023-06-10T09:15:59;98741.97;;;25.07;61.04
80424;BME280;69765;47.668;19.326;2023-06-10T09:19:05;98740.97;;;26.26;57.15
80424;BME280;69765;47.668;19.326;2023-06-10T09:22:10;98736.53;;;26.34;55.36
80424;BME280;69765;47.668;19.326;2023-06-10T09:25:13;98736.69;;;25.91;57.44
80424;BME280;69765;47.668;19.326;2023-06-10T09:28:16;98738.47;;;25.36;62.81
80424;BME280;69765;47.668;19.326;2023-06-10T09:31:19;98735.78;;;26.09;59.48
80424;BME280;69765;47.668;19.326;2023-06-10T09:34:25;98740.25;;;25.37;58.28
80424;BME280;69765;47.668;19.326;2023-06-10T09:37:28;98740.09;;;24.57;61.66
80424;BME280;69765;47.668;19.326;2023-06-10T09:40:31;98744.25;;;24.11;60.82
80424;BME280;69765;47.668;19.326;2023-06-10T09:43:43;98737.03;;;23.67;66.86
80424;BME280;69765;47.668;19.326;2023-06-10T09:46:49;98741.22;;;23.50;68.81
80424;BME280;69765;47.668;19.326;2023-06-10T09:49:52;98734.13;;;23.36;68.67
80424;BME280;69765;47.668;19.326;2023-06-10T09:52:55;98728.91;;;23.36;66.99
80424;BME280;69765;47.668;19.326;2023-06-10T09:55:58;98725.56;;;23.53;65.25
80424;BME280;69765;47.668;19.326;2023-06-10T09:59:01;98731.75;;;23.65;65.72
80424;BME280;69765;47.668;19.326;2023-06-10T10:02:03;98729.25;;;23.82;64.62
80424;BME280;69765;47.668;19.326;2023-06-10T10:05:09;98728.56;;;24.14;63.96
80424;BME280;69765;47.668;19.326;2023-06-10T10:08:12;98724.34;;;24.43;61.66
80424;BME280;69765;47.668;19.326;2023-06-10T10:11:17;98726.19;;;24.83;62.68
80424;BME280;69765;47.668;19.326;2023-06-10T10:14:20;98721.00;;;25.35;61.32
80424;BME280;69765;47.668;19.326;2023-06-10T10:17:24;98722.75;;;25.79;61.42
80424;BME280;69765;47.668;19.326;2023-06-10T10:20:34;98720.91;;;26.08;61.23
80424;BME280;69765;47.668;19.326;2023-06-10T10:26:58;98714.09;;;27.29;53.46
80424;BME280;69765;47.668;19.326;2023-06-10T10:30:03;98716.66;;;28.24;51.70
80424;BME280;69765;47.668;19.326;2023-06-10T10:33:19;98712.88;;;27.68;50.11
80424;BME280;69765;47.668;19.326;2023-06-10T10:36:22;98711.34;;;27.44;54.40
80424;BME280;69765;47.668;19.326;2023-06-10T10:39:25;98712.78;;;28.54;49.55
80424;BME280;69765;47.668;19.326;2023-06-10T10:42:30;98706.06;;;28.95;48.51
80424;BME280;69765;47.668;19.326;2023-06-10T10:45:34;98708.63;;;28.36;48.57
80424;BME280;69765;47.668;19.326;2023-06-10T10:48:38;98704.28;;;28.31;46.19
80424;BME280;69765;47.668;19.326;2023-06-10T10:51:57;98694.22;;;30.18;45.55
80424;BME280;69765;47.668;19.326;2023-06-10T10:54:59;98686.19;;;30.63;44.97
80424;BME280;69765;47.668;19.326;2023-06-10T10:58:06;98687.56;;;29.97;46.08
80424;BME280;69765;47.668;19.326;2023-06-10T11:01:14;98686.38;;;28.57;45.37
80424;BME280;69765;47.668;19.326;2023-06-10T11:04:18;98678.50;;;30.52;46.10
80424;BME280;69765;47.668;19.326;2023-06-10T11:07:20;98668.13;;;32.48;39.42
80424;BME280;69765;47.668;19.326;2023-06-10T11:10:32;98665.75;;;32.09;38.70
80424;BME280;69765;47.668;19.326;2023-06-10T11:13:35;98664.69;;;31.84;41.96
80424;BME280;69765;47.668;19.326;2023-06-10T11:16:41;98659.22;;;30.87;42.74
80424;BME280;69765;47.668;19.326;2023-06-10T11:19:44;98658.50;;;29.97;46.85
80424;BME280;69765;47.668;19.326;2023-06-10T11:22:58;98663.69;;;29.06;51.60
80424;BME280;69765;47.668;19.326;2023-06-10T11:29:34;98656.41;;;27.07;51.26
80424;BME280;69765;47.668;19.326;2023-06-10T11:32:36;98654.47;;;27.31;53.56
80424;BME280;69765;47.668;19.326;2023-06-10T11:35:39;98658.97;;;27.18;59.38
80424;BME280;69765;47.668;19.326;2023-06-10T11:38:42;98657.22;;;27.17;52.83
80424;BME280;69765;47.668;19.326;2023-06-10T11:41:45;98653.69;;;27.18;54.29
80424;BME280;69765;47.668;19.326;2023-06-10T11:44:52;98662.13;;;27.55;55.34
80424;BME280;69765;47.668;19.326;2023-06-10T11:47:58;98655.03;;;27.63;51.76
80424;BME280;69765;47.668;19.326;2023-06-10T11:51:01;98652.59;;;27.43;53.21
80424;BME280;69765;47.668;19.326;2023-06-10T11:54:10;98647.47;;;27.30;48.68
80424;BME280;69765;47.668;19.326;2023-06-10T11:57:13;98643.28;;;27.02;52.51
80424;BME280;69765;47.668;19.326;2023-06-10T12:00:16;98648.34;;;27.29;51.34
80424;BME280;69765;47.668;19.326;2023-06-10T12:03:21;98647.69;;;27.90;50.05
80424;BME280;69765;47.668;19.326;2023-06-10T12:06:44;98646.13;;;28.46;48.71
80424;BME280;69765;47.668;19.326;2023-06-10T12:09:59;98637.41;;;27.71;52.25
80424;BME280;69765;47.668;19.326;2023-06-10T12:13:13;98639.22;;;27.62;50.49
80424;BME280;69765;47.668;19.326;2023-06-10T12:16:17;98631.56;;;28.19;48.71
80424;BME280;69765;47.668;19.326;2023-06-10T12:19:20;98627.31;;;28.69;48.50
80424;BME280;69765;47.668;19.326;2023-06-10T12:22:25;98627.44;;;27.96;51.15
80424;BME280;69765;47.668;19.326;2023-06-10T12:25:34;98610.78;;;27.94;49.80
80424;BME280;69765;47.668;19.326;2023-06-10T12:28:50;98615.13;;;27.98;52.45
80424;BME280;69765;47.668;19.326;2023-06-10T12:35:03;98613.53;;;26.97;52.63
80424;BME280;69765;47.668;19.326;2023-06-10T12:38:07;98613.19;;;26.19;54.72
80424;BME280;69765;47.668;19.326;2023-06-10T12:41:10;98630.13;;;25.20;58.68
80424;BME280;69765;47.668;19.326;2023-06-10T12:44:15;98625.75;;;24.71;66.08
80424;BME280;69765;47.668;19.326;2023-06-10T12:47:19;98635.25;;;24.30;65.02
80424;BME280;69765;47.668;19.326;2023-06-10T12:50:22;98634.00;;;23.48;70.68
80424;BME280;69765;47.668;19.326;2023-06-10T12:53:25;98640.03;;;23.38;70.80
80424;BME280;69765;47.668;19.326;2023-06-10T12:56:31;98637.50;;;23.49;73.67
80424;BME280;69765;47.668;19.326;2023-06-10T12:59:33;98635.81;;;23.61;68.03
80424;BME280;69765;47.668;19.326;2023-06-10T13:02:35;98641.91;;;23.60;76.78
80424;BME280;69765;47.668;19.326;2023-06-10T13:05:38;98634.16;;;23.68;73.54
80424;BME280;69765;47.668;19.326;2023-06-10T13:08:41;98633.41;;;24.00;71.22
80424;BME280;69765;47.668;19.326;2023-06-10T13:11:43;98625.56;;;23.95;68.96
80424;BME280;69765;47.668;19.326;2023-06-10T13:14:46;98615.06;;;23.93;68.79
80424;BME280;69765;47.668;19.326;2023-06-10T13:17:48;98606.38;;;24.08;69.59
80424;BME280;69765;47.668;19.326;2023-06-10T13:20:53;98602.06;;;24.24;69.55
80424;BME280;69765;47.668;19.326;2023-06-10T13:23:55;98603.75;;;24.04;63.05
80424;BME280;69765;47.668;19.326;2023-06-10T13:26:57;98604.63;;;24.09;66.25
80424;BME280;69765;47.668;19.326;2023-06-10T13:30:00;98591.69;;;24.61;60.70
80424;BME280;69765;47.668;19.326;2023-06-10T13:33:02;98593.34;;;25.40;60.79
80424;BME280;69765;47.668;19.326;2023-06-10T13:36:05;98590.69;;;25.58;57.74
80424;BME280;69765;47.668;19.326;2023-06-10T13:39:07;98596.78;;;25.63;58.42
80424;BME280;69765;47.668;19.326;2023-06-10T13:42:10;98606.34;;;25.87;60.18
80424;BME280;69765;47.668;19.326;2023-06-10T13:45:12;98599.28;;;26.02;56.19
80424;BME280;69765;47.668;19.326;2023-06-10T13:48:15;98596.34;;;26.54;59.16
80424;BME280;69765;47.668;19.326;2023-06-10T13:51:18;98597.78;;;26.94;55.88
80424;BME280;69765;47.668;19.326;2023-06-10T13:54:20;98598.16;;;26.44;56.75
80424;BME280;69765;47.668;19.326;2023-06-10T13:57:23;98595.44;;;26.61;57.17
80424;BME280;69765;47.668;19.326;2023-06-10T14:00:25;98594.72;;;26.34;57.23
80424;BME280;69765;47.668;19.326;2023-06-10T14:03:29;98598.50;;;25.81;60.96
80424;BME280;69765;47.668;19.326;2023-06-10T14:06:33;98605.44;;;25.97;56.88
80424;BME280;69765;47.668;19.326;2023-06-10T14:09:35;98603.72;;;25.86;58.06
80424;BME280;69765;47.668;19.326;2023-06-10T14:12:38;98600.41;;;25.07;59.62
80424;BME280;69765;47.668;19.326;2023-06-10T14:15:41;98608.25;;;24.69;64.32
80424;BME280;69765;47.668;19.326;2023-06-10T14:18:43;98612.47;;;24.04;63.24
80424;BME280;69765;47.668;19.326;2023-06-10T14:21:45;98618.34;;;23.56;66.15
80424;BME280;69765;47.668;19.326;2023-06-10T14:24:49;98611.94;;;23.05;67.72
80424;BME280;69765;47.668;19.326;2023-06-10T14:27:51;98615.72;;;22.43;68.02
80424;BME280;69765;47.668;19.326;2023-06-10T14:30:53;98620.47;;;22.02;70.62
80424;BME280;69765;47.668;19.326;2023-06-10T14:33:56;98620.16;;;21.74;72.47
80424;BME280;69765;47.668;19.326;2023-06-10T14:36:59;98620.06;;;21.66;72.59
80424;BME280;69765;47.668;19.326;2023-06-10T14:40:03;98626.63;;;21.40;71.64
80424;BME280;69765;47.668;19.326;2023-06-10T14:43:06;98629.78;;;21.21;76.11
80424;BME280;69765;47.668;19.326;2023-06-10T14:46:11;98631.22;;;20.99;74.16
80424;BME280;69765;47.668;19.326;2023-06-10T14:49:14;98643.09;;;20.83;76.07
80424;BME280;69765;47.668;19.326;2023-06-10T14:52:16;98633.91;;;21.05;75.26
80424;BME280;69765;47.668;19.326;2023-06-10T14:55:19;98625.38;;;21.15;74.90
80424;BME280;69765;47.668;19.326;2023-06-10T14:58:22;98620.31;;;21.24;75.00
80424;BME280;69765;47.668;19.326;2023-06-10T15:01:24;98606.34;;;21.21;73.32
80424;BME280;69765;47.668;19.326;2023-06-10T15:04:27;98600.84;;;21.01;77.54
80424;BME280;69765;47.668;19.326;2023-06-10T15:07:31;98594.56;;;20.88;78.44
80424;BME280;69765;47.668;19.326;2023-06-10T15:10:33;98592.81;;;20.87;77.98
80424;BME280;69765;47.668;19.326;2023-06-10T15:13:35;98598.72;;;20.75;78.50
80424;BME280;69765;47.668;19.326;2023-06-10T15:16:38;98602.84;;;20.62;79.75
80424;BME280;69765;47.668;19.326;2023-06-10T15:19:40;98602.06;;;20.66;78.91
80424;BME280;69765;47.668;19.326;2023-06-10T15:22:43;98606.22;;;20.57;79.40
80424;BME280;69765;47.668;19.326;2023-06-10T15:25:45;98614.03;;;20.57;81.03
80424;BME280;69765;47.668;19.326;2023-06-10T15:28:48;98605.97;;;20.45;80.82
80424;BME280;69765;47.668;19.326;2023-06-10T15:31:51;98615.72;;;20.55;81.99
80424;BME280;69765;47.668;19.326;2023-06-10T15:34:53;98616.50;;;20.51;78.44
80424;BME280;69765;47.668;19.326;2023-06-10T15:37:55;98619.25;;;20.57;81.02
80424;BME280;69765;47.668;19.326;2023-06-10T15:40:58;98623.75;;;20.67;81.33
80424;BME280;69765;47.668;19.326;2023-06-10T15:44:00;98620.22;;;20.65;81.07
80424;BME280;69765;47.668;19.326;2023-06-10T15:47:03;98623.78;;;20.70;81.25
80424;BME280;69765;47.668;19.326;2023-06-10T15:50:06;98621.06;;;20.64;81.66
80424;BME280;69765;47.668;19.326;2023-06-10T15:53:08;98620.97;;;20.56;81.73
80424;BME280;69765;47.668;19.326;2023-06-10T15:56:10;98622.72;;;20.59;80.93
80424;BME280;69765;47.668;19.326;2023-06-10T15:59:13;98623.59;;;20.58;83.30
80424;BME280;69765;47.668;19.326;2023-06-10T16:02:15;98629.38;;;20.43;81.78
80424;BME280;69765;47.668;19.326;2023-06-10T16:05:18;98624.28;;;20.48;83.41
80424;BME280;69765;47.668;19.326;2023-06-10T16:08:20;98627.91;;;20.57;83.75
80424;BME280;69765;47.668;19.326;2023-06-10T16:11:22;98634.16;;;20.68;83.17
80424;BME280;69765;47.668;19.326;2023-06-10T16:14:25;98622.16;;;20.75;81.84
80424;BME280;69765;47.668;19.326;2023-06-10T16:17:27;98624.16;;;20.91;81.03